createdAt,value
2023-05-08T00:01:21.991Z,101169.81
2023-05-08T00:06:24.769Z,101173.25
2023-05-08T00:11:27.551Z,101169.34
2023-05-08T00:16:32.698Z,101171.50
2023-05-08T00:21:35.488Z,101162.09
2023-05-08T00:26:38.226Z,101179.44
2023-05-08T00:31:42.351Z,101179.44
2023-05-08T00:36:45.128Z,101178.72
2023-05-08T00:41:47.846Z,101174.88
2023-05-08T00:46:52.076Z,101176.78
2023-05-08T00:51:56.892Z,101169.72
2023-05-08T00:56:59.708Z,101161.19
2023-05-08T01:02:03.930Z,101157.13
2023-05-08T01:07:06.731Z,101168.09
2023-05-08T01:12:17.009Z,101151.91
2023-05-08T01:17:25.728Z,101170.41
2023-05-08T01:22:42.957Z,101180.78
2023-05-08T01:28:13.184Z,101174.09
2023-05-08T01:33:21.615Z,101182.22
2023-05-08T01:38:33.414Z,101186.28
2023-05-08T01:43:41.845Z,101192.66
2023-05-08T01:48:50.548Z,101212.78
2023-05-08T01:53:56.965Z,101206.13
2023-05-08T01:59:00.429Z,101223.78
2023-05-08T02:04:06.437Z,101231.06
2023-05-08T02:09:10.753Z,101247.69
2023-05-08T02:14:14.776Z,101221.72
2023-05-08T02:19:19.478Z,101216.09
2023-05-08T02:24:22.284Z,101237.56
2023-05-08T02:29:25.262Z,101240.72
2023-05-08T02:34:29.827Z,101274.41
2023-05-08T02:39:32.878Z,101288.63
2023-05-08T02:44:35.611Z,101290.69
2023-05-08T02:49:45.636Z,101304.81
2023-05-08T02:54:57.442Z,101321.63
2023-05-08T03:00:04.462Z,101319.34
2023-05-08T03:05:15.554Z,101319.97
2023-05-08T03:10:19.733Z,101320.50
2023-05-08T03:15:26.999Z,101325.78
2023-05-08T03:20:33.904Z,101337.84
2023-05-08T03:25:39.495Z,101350.41
2023-05-08T03:30:42.965Z,101362.09
2023-05-08T03:35:51.053Z,101370.19
2023-05-08T03:40:53.962Z,101369.56
2023-05-08T03:45:57.763Z,101382.41
2023-05-08T03:51:03.856Z,101394.63
2023-05-08T03:56:07.849Z,101394.38
2023-05-08T04:01:14.976Z,101404.78
2023-05-08T04:06:28.755Z,101412.47
2023-05-08T04:11:39.480Z,101412.97
2023-05-08T04:16:50.247Z,101423.78
2023-05-08T04:21:56.539Z,101441.09
2023-05-08T04:26:59.933Z,101454.06
2023-05-08T04:32:05.269Z,101458.34
2023-05-08T04:37:24.224Z,101475.03
2023-05-08T04:42:27.472Z,101484.53
2023-05-08T04:47:33.755Z,101483.44
2023-05-08T04:52:38.691Z,101492.34
2023-05-08T04:57:42.150Z,101501.28
2023-05-08T05:02:45.515Z,101514.88
2023-05-08T05:07:49.722Z,101522.25
2023-05-08T05:12:54.290Z,101514.31
2023-05-08T05:17:57.575Z,101521.94
2023-05-08T05:23:01.871Z,101526.06
2023-05-08T05:28:05.224Z,101529.91
2023-05-08T05:33:08.774Z,101530.28
2023-05-08T05:38:13.337Z,101531.94
2023-05-08T05:43:16.754Z,101530.66
2023-05-08T05:48:19.746Z,101543.72
2023-05-08T05:53:24.030Z,101529.13
2023-05-08T05:58:28.358Z,101526.22
2023-05-08T06:03:31.290Z,101514.69
2023-05-08T06:08:35.531Z,101495.34
2023-05-08T06:13:40.514Z,101485.53
2023-05-08T06:18:43.486Z,101465.34
2023-05-08T06:23:47.614Z,101481.28
2023-05-08T06:28:50.295Z,101509.16
2023-05-08T06:33:52.961Z,101511.97
2023-05-08T06:38:56.996Z,101513.13
2023-05-08T06:43:59.719Z,101516.47
2023-05-08T06:49:02.414Z,101509.78
2023-05-08T06:54:08.287Z,101521.28
2023-05-08T06:59:11.075Z,101534.63
2023-05-08T07:04:13.892Z,101508.81
2023-05-08T07:09:20.947Z,101499.34
2023-05-08T07:14:23.684Z,101507.06
2023-05-08T07:19:26.548Z,101521.47
2023-05-08T07:24:30.758Z,101501.34
2023-05-08T07:29:33.507Z,101509.34
2023-05-08T07:34:36.354Z,101517.13
2023-05-08T07:39:40.450Z,101522.66
2023-05-08T07:44:53.681Z,101526.75
2023-05-08T07:49:57.738Z,101533.16
2023-05-08T07:55:01.799Z,101541.00
2023-05-08T08:00:04.992Z,101547.00
2023-05-08T08:05:16.194Z,101547.56
2023-05-08T08:10:20.453Z,101530.22
2023-05-08T08:15:23.199Z,101533.06
2023-05-08T08:20:26.247Z,101523.59
2023-05-08T08:25:30.547Z,101529.22
2023-05-08T08:30:33.337Z,101542.28
2023-05-08T08:35:36.153Z,101535.84
2023-05-08T08:40:43.644Z,101516.22
2023-05-08T08:45:46.425Z,101513.44
2023-05-08T08:50:52.058Z,101506.78
2023-05-08T08:55:57.179Z,101516.84
2023-05-08T09:01:00.279Z,101538.09
2023-05-08T09:06:03.287Z,101542.75
2023-05-08T09:11:07.477Z,101539.53
2023-05-08T09:16:10.767Z,101537.22
2023-05-08T09:21:13.841Z,101516.00
2023-05-08T09:26:32.200Z,101520.06
2023-05-08T09:31:36.416Z,101497.44
2023-05-08T09:36:40.146Z,101481.53
2023-05-08T09:41:58.114Z,101485.47
2023-05-08T09:47:14.027Z,101485.28
2023-05-08T09:52:16.819Z,101477.69
2023-05-08T09:57:21.492Z,101466.09
2023-05-08T10:02:24.173Z,101460.38
2023-05-08T10:07:31.496Z,101473.84
2023-05-08T10:12:37.793Z,101462.72
2023-05-08T10:17:45.979Z,101466.16
2023-05-08T10:22:50.062Z,101429.66
2023-05-08T10:27:58.524Z,101393.47
2023-05-08T10:33:04.369Z,101401.78
2023-05-08T10:38:09.881Z,101390.47
2023-05-08T10:43:14.047Z,101378.13
2023-05-08T10:48:26.861Z,101415.22
2023-05-08T10:53:34.391Z,101441.31
2023-05-08T10:58:40.227Z,101407.91
2023-05-08T11:03:45.296Z,101441.81
2023-05-08T11:08:50.292Z,101432.03
2023-05-08T11:13:57.284Z,101411.56
2023-05-08T11:19:19.050Z,101405.06
2023-05-08T11:24:35.144Z,101413.34
2023-05-08T11:29:39.882Z,101423.03
2023-05-08T11:34:46.483Z,101386.31
2023-05-08T11:39:49.632Z,101409.00
2023-05-08T11:45:05.347Z,101394.56
2023-05-08T11:50:10.494Z,101346.16
2023-05-08T11:55:15.682Z,101385.84
2023-05-08T12:00:20.301Z,101404.53
2023-05-08T12:05:28.048Z,101321.13
2023-05-08T12:10:30.857Z,101358.03
2023-05-08T12:15:34.945Z,101331.34
2023-05-08T12:20:37.699Z,101309.41
2023-05-08T12:25:41.069Z,101329.09
2023-05-08T12:30:45.244Z,101343.19
2023-05-08T12:35:47.988Z,101402.31
2023-05-08T12:40:52.908Z,101375.75
2023-05-08T12:45:57.065Z,101311.91
2023-05-08T12:51:04.744Z,101312.28
2023-05-08T12:56:08.080Z,101312.47
2023-05-08T13:01:13.745Z,101306.38
2023-05-08T13:06:23.293Z,101322.91
2023-05-08T13:11:30.195Z,101299.28
2023-05-08T13:16:43.126Z,101300.16
2023-05-08T13:21:47.615Z,101291.78
2023-05-08T13:26:50.320Z,101299.03
2023-05-08T13:31:54.411Z,101307.34
2023-05-08T13:36:57.193Z,101313.75
2023-05-08T13:41:59.889Z,101306.59
2023-05-08T13:47:04.016Z,101305.53
2023-05-08T13:52:06.702Z,101321.34
2023-05-08T13:57:09.649Z,101337.13
2023-05-08T14:02:13.951Z,101354.19
2023-05-08T14:07:18.297Z,101401.72
2023-05-08T14:12:20.999Z,101394.22
2023-05-08T14:17:25.301Z,101376.09
2023-05-08T14:22:28.168Z,101342.91
2023-05-08T14:27:30.955Z,101347.78
2023-05-08T14:32:35.169Z,101350.59
2023-05-08T14:37:38.021Z,101362.84
2023-05-08T14:42:40.757Z,101387.53
2023-05-08T14:47:44.933Z,101362.84
2023-05-08T14:52:47.714Z,101357.00
2023-05-08T14:57:50.657Z,101393.84
2023-05-08T15:02:54.816Z,101437.06
2023-05-08T15:07:57.941Z,101520.88
2023-05-08T15:13:00.818Z,101682.09
2023-05-08T15:18:05.174Z,101787.31
2023-05-08T15:23:08.347Z,101845.50
2023-05-08T15:28:12.364Z,101897.97
2023-05-08T15:33:16.468Z,101986.88
2023-05-08T15:38:22.622Z,102026.09
2023-05-08T15:43:25.717Z,102076.84
2023-05-08T15:48:29.763Z,102162.06
2023-05-08T15:53:33.732Z,102205.34
2023-05-08T15:58:38.858Z,102213.69
2023-05-08T16:03:43.060Z,102239.34
2023-05-08T16:08:45.892Z,102279.06
2023-05-08T16:13:48.662Z,102335.41
2023-05-08T16:18:52.733Z,102465.97
2023-05-08T16:23:55.851Z,102520.16
2023-05-08T16:28:58.579Z,102578.31
2023-05-08T16:34:02.611Z,102615.53
2023-05-08T16:39:05.828Z,102588.66
2023-05-08T16:44:08.523Z,102637.91
2023-05-08T16:49:12.578Z,102676.75
2023-05-08T16:54:15.244Z,102712.06
2023-05-08T16:59:17.906Z,102778.19
2023-05-08T17:04:21.941Z,102825.44
2023-05-08T17:09:25.318Z,102811.22
2023-05-08T17:14:28.009Z,102851.56
2023-05-08T17:19:32.043Z,102862.38
2023-05-08T17:24:36.621Z,102851.31
2023-05-08T17:29:39.830Z,102835.03
2023-05-08T17:34:43.997Z,102807.09
2023-05-08T17:39:47.101Z,102782.19
2023-05-08T17:44:49.904Z,102768.84
2023-05-08T17:49:53.998Z,102818.41
2023-05-08T17:54:56.930Z,102804.91
2023-05-08T17:59:59.616Z,102826.88
2023-05-08T18:05:03.812Z,102834.28
2023-05-08T18:10:07.680Z,102859.44
2023-05-08T18:15:11.404Z,102886.25
2023-05-08T18:20:15.893Z,102878.63
2023-05-08T18:25:18.917Z,102913.09
2023-05-08T18:30:21.700Z,102991.22
2023-05-08T18:35:25.863Z,103053.41
2023-05-08T18:40:28.741Z,103137.38
2023-05-08T18:45:31.613Z,103213.81
2023-05-08T18:50:35.711Z,103314.69
2023-05-08T18:55:38.491Z,103390.47
2023-05-08T19:00:41.295Z,103515.47
2023-05-08T19:05:45.388Z,103589.13
2023-05-08T19:10:48.285Z,103687.28
2023-05-08T19:15:51.119Z,103723.25
2023-05-08T19:20:55.179Z,103767.94
2023-05-08T19:25:57.856Z,103816.72
2023-05-08T19:31:00.526Z,103849.16
2023-05-08T19:36:04.655Z,103890.59
2023-05-08T19:41:07.403Z,103947.97
2023-05-08T19:46:10.114Z,103947.03
2023-05-08T19:51:16.143Z,103969.50
2023-05-08T19:56:18.862Z,103935.34
2023-05-08T20:01:21.590Z,103965.09
2023-05-08T20:06:25.652Z,103969.75
2023-05-08T20:11:28.371Z,104026.72
2023-05-08T20:16:31.090Z,104073.50
2023-05-08T20:21:35.148Z,104154.81
2023-05-08T20:26:37.938Z,104180.63
2023-05-08T20:31:41.278Z,104200.69
2023-05-08T20:36:45.635Z,104238.53
2023-05-08T20:41:48.357Z,104263.88
2023-05-08T20:46:51.326Z,104298.28
2023-05-08T20:51:55.762Z,104327.63
2023-05-08T20:56:58.498Z,104404.41
2023-05-08T21:02:01.652Z,104448.16
2023-05-08T21:07:05.713Z,104484.22
2023-05-08T21:12:09.756Z,104517.28
2023-05-08T21:17:12.485Z,104587.44
2023-05-08T21:22:17.345Z,104623.25
2023-05-08T21:27:19.977Z,104668.78
2023-05-08T21:32:22.713Z,104735.34
2023-05-08T21:37:26.759Z,104753.03
2023-05-08T21:42:29.401Z,104745.19
2023-05-08T21:47:32.154Z,104747.81
2023-05-08T21:52:36.184Z,104773.50
2023-05-08T21:57:38.908Z,104789.88
2023-05-08T22:02:41.689Z,104824.31
2023-05-08T22:07:45.754Z,104823.06
2023-05-08T22:12:49.080Z,104910.66
2023-05-08T22:17:51.855Z,104948.25
2023-05-08T22:22:55.916Z,105004.94
2023-05-08T22:27:58.707Z,105034.59
2023-05-08T22:33:01.772Z,105051.53
2023-05-08T22:38:05.966Z,105083.59
2023-05-08T22:43:08.683Z,105092.50
2023-05-08T22:48:11.939Z,105038.69
2023-05-08T22:53:16.581Z,105018.50
2023-05-08T22:58:19.280Z,104939.78
2023-05-08T23:03:21.984Z,104843.72
2023-05-08T23:08:26.023Z,104733.84
2023-05-08T23:13:28.773Z,104635.97
2023-05-08T23:18:32.592Z,104551.53
2023-05-08T23:23:37.025Z,104458.94
2023-05-08T23:28:39.768Z,104360.44
2023-05-08T23:33:42.456Z,104242.13
2023-05-08T23:38:46.552Z,104140.16
2023-05-08T23:43:49.264Z,104052.84
2023-05-08T23:48:51.961Z,104002.44
2023-05-08T23:53:55.989Z,103899.56
2023-05-08T23:58:58.697Z,103806.63
